Time;durP1;ratioP1;P1;durP2;ratioP2;P2;SDS_P1;SDS_P2;PMS_P1;PMS_P2;Temp;Humidity;BMP_temperature;BMP_pressure;BME280_temperature;BME280_humidity;BME280_pressure;Samples;Min_cycle;Max_cycle;Signal;HPM_P1;HPM_P2
2021/03/14 00:01:51;;;;;;;2.13;1.13;;;;;;;;;;4939225;29;21249;-73
2021/03/14 00:04:55;;;;;;;3.67;1.10;;;;;;;;;;4938232;29;20600;-73
2021/03/14 00:07:59;;;;;;;3.07;1.30;;;;;;;;;;4937637;29;20604;-74
2021/03/14 00:11:06;;;;;;;1.87;1.10;;;;;;;;;;4942422;29;20999;-73
2021/03/14 00:14:10;;;;;;;2.50;1.07;;;;;;;;;;4957022;28;20615;-73
2021/03/14 00:17:14;;;;;;;2.10;1.00;;;;;;;;;;4939701;29;20596;-73
2021/03/14 00:20:19;;;;;;;1.63;0.90;;;;;;;;;;4938162;29;20619;-74
2021/03/14 00:23:23;;;;;;;1.30;0.80;;;;;;;;;;4954577;29;20595;-73
2021/03/14 00:26:27;;;;;;;1.73;0.80;;;;;;;;;;4945771;29;20615;-73
2021/03/14 00:29:31;;;;;;;1.23;0.83;;;;;;;;;;4937814;29;20588;-73
2021/03/14 00:32:36;;;;;;;2.87;0.87;;;;;;;;;;4937595;29;20552;-74
2021/03/14 00:35:40;;;;;;;1.10;0.70;;;;;;;;;;4941683;29;20954;-73
2021/03/14 00:38:44;;;;;;;0.60;0.50;;;;;;;;;;4937691;29;20544;-74
2021/03/14 00:41:49;;;;;;;1.87;0.70;;;;;;;;;;4936838;29;20635;-74
2021/03/14 00:44:53;;;;;;;0.80;0.50;;;;;;;;;;4939559;29;20635;-73
2021/03/14 00:48:02;;;;;;;0.67;0.50;;;;;;;;;;4956373;29;20606;-73
2021/03/14 00:51:08;;;;;;;1.33;0.67;;;;;;;;;;4946080;29;20651;-73
2021/03/14 00:54:20;;;;;;;1.13;0.50;;;;;;;;;;4936532;29;20603;-74
2021/03/14 00:57:24;;;;;;;1.27;0.60;;;;;;;;;;4925365;29;20604;-73
2021/03/14 01:00:28;;;;;;;2.57;0.60;;;;;;;;;;4939946;29;20639;-73
2021/03/14 01:03:33;;;;;;;3.20;0.70;;;;;;;;;;4938165;29;20624;-73
2021/03/14 01:06:37;;;;;;;1.03;0.50;;;;;;;;;;4940432;29;20595;-73
2021/03/14 01:09:44;;;;;;;2.27;0.50;;;;;;;;;;4955422;29;20544;-73
2021/03/14 01:12:49;;;;;;;1.57;0.83;;;;;;;;;;4955639;29;20548;-73
2021/03/14 01:15:59;;;;;;;0.70;0.50;;;;;;;;;;4939114;29;20595;-73
2021/03/14 01:19:03;;;;;;;2.00;0.90;;;;;;;;;;4935899;29;20552;-74
2021/03/14 01:22:07;;;;;;;1.20;0.50;;;;;;;;;;4936841;29;20623;-74
2021/03/14 01:25:12;;;;;;;1.50;0.53;;;;;;;;;;4939821;29;20595;-73
2021/03/14 01:28:16;;;;;;;0.87;0.50;;;;;;;;;;4949008;29;20583;-73
2021/03/14 01:31:20;;;;;;;1.00;0.60;;;;;;;;;;4954880;29;20975;-73
2021/03/14 01:34:24;;;;;;;0.90;0.50;;;;;;;;;;4955003;29;20599;-74
2021/03/14 01:37:28;;;;;;;0.83;0.57;;;;;;;;;;4941282;29;20600;-74
2021/03/14 01:40:33;;;;;;;2.70;0.50;;;;;;;;;;4941029;29;20639;-73
2021/03/14 01:43:37;;;;;;;1.80;0.60;;;;;;;;;;4955343;29;21176;-74
2021/03/14 01:46:41;;;;;;;1.60;0.60;;;;;;;;;;4955642;29;20543;-73
2021/03/14 01:49:45;;;;;;;0.60;0.50;;;;;;;;;;4951106;29;20588;-73
2021/03/14 01:52:50;;;;;;;2.00;0.70;;;;;;;;;;4936324;29;20540;-74
2021/03/14 01:55:55;;;;;;;1.07;0.60;;;;;;;;;;4949404;29;20595;-73
2021/03/14 01:59:00;;;;;;;1.23;0.80;;;;;;;;;;4936391;29;20873;-74
2021/03/14 02:02:05;;;;;;;1.57;0.67;;;;;;;;;;4935399;29;20623;-74
2021/03/14 02:05:11;;;;;;;0.60;0.50;;;;;;;;;;4944182;29;20591;-73
2021/03/14 02:08:15;;;;;;;1.50;0.60;;;;;;;;;;4954329;29;20547;-73
2021/03/14 02:11:24;;;;;;;1.10;0.70;;;;;;;;;;4950089;29;20654;-73
2021/03/14 02:14:29;;;;;;;0.50;0.40;;;;;;;;;;4940049;29;20655;-73
2021/03/14 02:17:36;;;;;;;2.43;0.60;;;;;;;;;;4935992;29;20607;-73
2021/03/14 02:20:41;;;;;;;0.97;0.63;;;;;;;;;;4944750;29;20654;-73
2021/03/14 02:24:01;;;;;;;1.53;0.63;;;;;;;;;;4955269;29;20869;-74
2021/03/14 02:27:06;;;;;;;0.43;0.40;;;;;;;;;;4935753;29;20596;-73
2021/03/14 02:30:12;;;;;;;1.27;0.70;;;;;;;;;;4925171;29;20596;-73
2021/03/14 02:33:20;;;;;;;1.73;0.60;;;;;;;;;;4934931;29;20552;-74
2021/03/14 02:36:25;;;;;;;0.80;0.50;;;;;;;;;;4924343;29;20540;-74
2021/03/14 02:39:31;;;;;;;1.70;0.87;;;;;;;;;;4943872;29;20587;-73
2021/03/14 02:42:37;;;;;;;1.10;0.60;;;;;;;;;;4958686;29;20560;-74
2021/03/14 02:45:42;;;;;;;0.80;0.50;;;;;;;;;;4939763;29;20619;-74
2021/03/14 02:48:47;;;;;;;0.83;0.50;;;;;;;;;;4939575;29;20956;-74
2021/03/14 02:51:51;;;;;;;1.70;0.43;;;;;;;;;;4939344;29;20627;-74
2021/03/14 02:54:57;;;;;;;3.00;0.80;;;;;;;;;;4939411;29;20659;-73
2021/03/14 02:58:03;;;;;;;1.63;0.80;;;;;;;;;;4939234;29;20596;-74
2021/03/14 03:01:09;;;;;;;1.00;0.60;;;;;;;;;;4956804;29;21228;-73
2021/03/14 03:04:17;;;;;;;0.87;0.60;;;;;;;;;;4948228;29;20584;-73
2021/03/14 03:07:23;;;;;;;1.70;0.63;;;;;;;;;;4940609;29;20595;-73
2021/03/14 03:10:35;;;;;;;1.90;0.60;;;;;;;;;;4944747;29;20647;-74
2021/03/14 03:13:40;;;;;;;2.90;0.70;;;;;;;;;;4939178;29;21142;-74
2021/03/14 03:16:48;;;;;;;1.57;0.70;;;;;;;;;;4927618;29;20544;-74
2021/03/14 03:19:54;;;;;;;0.50;0.50;;;;;;;;;;4945829;29;20592;-74
2021/03/14 03:22:59;;;;;;;2.63;0.60;;;;;;;;;;4952763;29;20591;-73
2021/03/14 03:26:04;;;;;;;1.73;0.60;;;;;;;;;;4958098;29;20539;-73
2021/03/14 03:29:09;;;;;;;1.10;0.43;;;;;;;;;;4956210;29;20880;-73
2021/03/14 03:32:13;;;;;;;0.70;0.50;;;;;;;;;;4938509;29;21201;-73
2021/03/14 03:35:20;;;;;;;2.20;0.80;;;;;;;;;;4954697;29;20634;-73
2021/03/14 03:38:24;;;;;;;1.60;0.50;;;;;;;;;;4938720;29;20544;-74
2021/03/14 03:41:29;;;;;;;1.17;0.60;;;;;;;;;;4937438;29;20643;-73
2021/03/14 03:44:36;;;;;;;1.53;0.60;;;;;;;;;;4938196;29;20611;-74
2021/03/14 03:47:43;;;;;;;1.20;0.50;;;;;;;;;;4938593;29;20603;-74
2021/03/14 03:50:55;;;;;;;0.50;0.50;;;;;;;;;;4956536;28;20638;-74
2021/03/14 03:54:03;;;;;;;0.57;0.43;;;;;;;;;;4957545;29;20595;-74
2021/03/14 03:57:08;;;;;;;1.00;0.43;;;;;;;;;;4953321;29;20596;-74
2021/03/14 04:00:16;;;;;;;1.33;0.50;;;;;;;;;;4938442;29;20623;-74
2021/03/14 04:03:21;;;;;;;1.43;0.47;;;;;;;;;;4937337;29;20608;-74
2021/03/14 04:06:29;;;;;;;0.80;0.60;;;;;;;;;;4938252;29;20540;-74
2021/03/14 04:09:33;;;;;;;0.53;0.50;;;;;;;;;;4937281;29;20620;-74
2021/03/14 04:12:39;;;;;;;0.40;0.40;;;;;;;;;;4937767;29;20619;-73
2021/03/14 04:15:44;;;;;;;1.30;0.60;;;;;;;;;;4938095;29;20596;-74
2021/03/14 04:18:50;;;;;;;0.70;0.57;;;;;;;;;;4940012;29;20608;-73
2021/03/14 04:21:56;;;;;;;1.47;0.60;;;;;;;;;;4956792;29;20627;-73
2021/03/14 04:25:02;;;;;;;1.43;0.50;;;;;;;;;;4937962;29;20536;-74
2021/03/14 04:28:07;;;;;;;1.17;0.60;;;;;;;;;;4937020;29;20552;-73
2021/03/14 04:31:12;;;;;;;0.97;0.47;;;;;;;;;;4937998;29;20624;-73
2021/03/14 04:34:19;;;;;;;0.40;0.40;;;;;;;;;;4937682;29;20630;-73
2021/03/14 04:37:24;;;;;;;0.87;0.50;;;;;;;;;;4937715;29;20545;-73
2021/03/14 04:40:28;;;;;;;0.87;0.80;;;;;;;;;;4952508;29;20650;-73
2021/03/14 04:43:33;;;;;;;0.80;0.80;;;;;;;;;;4953123;29;20631;-74
2021/03/14 04:46:37;;;;;;;0.70;0.70;;;;;;;;;;4936712;29;20548;-74
2021/03/14 04:49:42;;;;;;;0.87;0.70;;;;;;;;;;4946156;29;21173;-73
2021/03/14 04:52:49;;;;;;;0.80;0.80;;;;;;;;;;4956539;29;20544;-74
2021/03/14 04:55:55;;;;;;;0.70;0.70;;;;;;;;;;4956196;29;20595;-73
2021/03/14 04:59:00;;;;;;;0.70;0.50;;;;;;;;;;4954505;29;20595;-73
2021/03/14 05:02:05;;;;;;;0.73;0.50;;;;;;;;;;4945248;28;20655;-73
2021/03/14 05:05:12;;;;;;;0.90;0.60;;;;;;;;;;4937475;29;20541;-74
2021/03/14 05:08:19;;;;;;;1.03;0.60;;;;;;;;;;4937276;29;20881;-73
2021/03/14 05:11:24;;;;;;;1.60;0.67;;;;;;;;;;4956133;29;20622;-73
2021/03/14 05:14:28;;;;;;;0.50;0.50;;;;;;;;;;4941587;29;21210;-73
2021/03/14 05:17:33;;;;;;;0.70;0.50;;;;;;;;;;4950457;29;20940;-73
2021/03/14 05:20:39;;;;;;;0.77;0.67;;;;;;;;;;4942831;29;20635;-73
2021/03/14 05:23:44;;;;;;;0.80;0.63;;;;;;;;;;4943627;29;20592;-73
2021/03/14 05:26:49;;;;;;;0.60;0.50;;;;;;;;;;4935478;29;20584;-73
2021/03/14 05:29:54;;;;;;;0.60;0.60;;;;;;;;;;4955268;29;20579;-73
2021/03/14 05:32:58;;;;;;;0.80;0.63;;;;;;;;;;4955074;29;20559;-73
2021/03/14 05:36:02;;;;;;;1.40;0.73;;;;;;;;;;4941806;29;20635;-73
2021/03/14 05:39:07;;;;;;;1.03;0.63;;;;;;;;;;4946940;29;20591;-73
2021/03/14 05:42:12;;;;;;;0.80;0.70;;;;;;;;;;4954596;29;21197;-73
2021/03/14 05:45:17;;;;;;;1.10;0.80;;;;;;;;;;4949439;29;20632;-73
2021/03/14 05:48:21;;;;;;;3.40;0.70;;;;;;;;;;4936165;29;20596;-73
2021/03/14 05:51:30;;;;;;;0.57;0.57;;;;;;;;;;4935495;29;20623;-73
2021/03/14 05:54:34;;;;;;;2.30;0.90;;;;;;;;;;4940552;29;20627;-73
2021/03/14 05:57:43;;;;;;;1.33;0.60;;;;;;;;;;4955368;29;21094;-74
2021/03/14 06:00:49;;;;;;;1.93;0.80;;;;;;;;;;4937254;29;20655;-73
2021/03/14 06:03:57;;;;;;;2.20;1.10;;;;;;;;;;4945732;29;20563;-73
2021/03/14 06:07:01;;;;;;;33.03;16.73;;;;;;;;;;4948536;29;20620;-73
2021/03/14 06:10:06;;;;;;;4.17;3.00;;;;;;;;;;4946450;29;20596;-73
2021/03/14 06:13:11;;;;;;;2.93;0.80;;;;;;;;;;4954575;28;21129;-73
2021/03/14 06:16:16;;;;;;;2.20;0.70;;;;;;;;;;4941262;29;20623;-73
2021/03/14 06:19:20;;;;;;;4.33;1.03;;;;;;;;;;4948146;29;21143;-73
2021/03/14 06:22:25;;;;;;;1.00;0.70;;;;;;;;;;4935997;29;20553;-73
2021/03/14 06:25:29;;;;;;;0.67;0.60;;;;;;;;;;4935052;29;20556;-73
2021/03/14 06:28:36;;;;;;;0.70;0.70;;;;;;;;;;4934956;29;20885;-74
2021/03/14 06:31:44;;;;;;;1.87;0.87;;;;;;;;;;4951803;29;20647;-73
2021/03/14 06:34:48;;;;;;;1.20;0.70;;;;;;;;;;4945326;29;20632;-73
2021/03/14 06:37:52;;;;;;;0.97;0.63;;;;;;;;;;4948115;29;20622;-73
2021/03/14 06:41:03;;;;;;;6.50;2.60;;;;;;;;;;4953464;29;20646;-73
2021/03/14 06:44:27;;;;;;;5.20;0.90;;;;;;;;;;4953964;29;21173;-74
2021/03/14 06:47:58;;;;;;;2.87;0.60;;;;;;;;;;4942555;29;20592;-73
2021/03/14 06:51:02;;;;;;;0.77;0.60;;;;;;;;;;4923861;29;20624;-74
2021/03/14 06:54:35;;;;;;;3.33;1.80;;;;;;;;;;4936408;29;20592;-73
2021/03/14 06:57:39;;;;;;;0.80;0.70;;;;;;;;;;4947666;29;20927;-73
2021/03/14 07:01:07;;;;;;;2.30;0.80;;;;;;;;;;4942886;29;20963;-73
2021/03/14 07:04:12;;;;;;;1.43;0.80;;;;;;;;;;4936633;29;20588;-74
2021/03/14 07:07:48;;;;;;;1.43;0.70;;;;;;;;;;4944845;29;20595;-73
2021/03/14 07:10:52;;;;;;;0.83;0.70;;;;;;;;;;4934769;29;20623;-74
2021/03/14 07:13:56;;;;;;;1.77;0.87;;;;;;;;;;4935492;29;20616;-74
2021/03/14 07:17:00;;;;;;;1.53;0.90;;;;;;;;;;4934887;29;20584;-74
2021/03/14 07:20:09;;;;;;;1.80;0.93;;;;;;;;;;4949582;29;20592;-73
2021/03/14 07:23:16;;;;;;;1.73;0.90;;;;;;;;;;4947337;29;20615;-73
2021/03/14 07:26:59;;;;;;;3.90;0.90;;;;;;;;;;4940751;29;20587;-74
2021/03/14 07:30:04;;;;;;;3.50;1.10;;;;;;;;;;4955142;29;21012;-73
2021/03/14 07:33:10;;;;;;;7.20;3.70;;;;;;;;;;4934650;29;20604;-74
2021/03/14 07:36:14;;;;;;;7.43;2.37;;;;;;;;;;4940831;29;20624;-74
2021/03/14 07:39:20;;;;;;;2.83;1.47;;;;;;;;;;4957160;29;20543;-74
2021/03/14 07:42:23;;;;;;;2.90;1.67;;;;;;;;;;4940747;29;20600;-74
2021/03/14 07:45:30;;;;;;;28.67;25.83;;;;;;;;;;4937544;29;20604;-74
2021/03/14 07:48:35;;;;;;;3.27;2.30;;;;;;;;;;4956413;29;20594;-74
2021/03/14 07:51:44;;;;;;;1.63;1.53;;;;;;;;;;4940733;29;20655;-74
2021/03/14 07:54:56;;;;;;;2.20;1.30;;;;;;;;;;4938318;29;20624;-73
2021/03/14 07:58:04;;;;;;;1.47;1.07;;;;;;;;;;4938390;29;20563;-73
2021/03/14 08:01:26;;;;;;;3.17;1.23;;;;;;;;;;4941117;29;20659;-73
2021/03/14 08:04:32;;;;;;;1.93;1.10;;;;;;;;;;4938208;29;20541;-74
2021/03/14 08:07:36;;;;;;;1.90;0.90;;;;;;;;;;4937453;29;20612;-74
2021/03/14 08:10:45;;;;;;;1.70;0.90;;;;;;;;;;4942613;29;20635;-73
2021/03/14 08:13:49;;;;;;;2.80;1.23;;;;;;;;;;4938412;29;20540;-74
2021/03/14 08:17:14;;;;;;;1.40;0.80;;;;;;;;;;4938100;29;20924;-74
2021/03/14 08:20:43;;;;;;;2.10;1.80;;;;;;;;;;4937780;29;20224;-74
2021/03/14 08:23:50;;;;;;;2.00;1.00;;;;;;;;;;4954097;29;20192;-74
2021/03/14 08:27:06;;;;;;;2.80;1.20;;;;;;;;;;4939990;29;20623;-74
2021/03/14 08:30:11;;;;;;;1.87;1.00;;;;;;;;;;4937099;29;20185;-74
2021/03/14 08:33:22;;;;;;;1.40;1.03;;;;;;;;;;4949328;29;20603;-73
2021/03/14 08:36:41;;;;;;;1.30;1.03;;;;;;;;;;4944835;29;20663;-74
2021/03/14 08:40:04;;;;;;;1.73;1.40;;;;;;;;;;4955734;29;20528;-73
2021/03/14 08:43:41;;;;;;;1.63;1.20;;;;;;;;;;4949606;29;20192;-74
2021/03/14 08:46:46;;;;;;;2.60;1.30;;;;;;;;;;4944693;29;20632;-74
2021/03/14 08:49:53;;;;;;;2.10;1.30;;;;;;;;;;4934071;29;20884;-73
2021/03/14 08:53:00;;;;;;;3.03;1.03;;;;;;;;;;4936152;29;20588;-73
2021/03/14 08:56:23;;;;;;;2.63;1.00;;;;;;;;;;4951334;29;20639;-73
2021/03/14 08:59:30;;;;;;;1.00;0.90;;;;;;;;;;4952268;29;20596;-73
2021/03/14 09:02:35;;;;;;;1.90;1.07;;;;;;;;;;4943422;29;20619;-73
2021/03/14 09:06:28;;;;;;;2.70;1.00;;;;;;;;;;4955529;29;20540;-73
2021/03/14 09:09:39;;;;;;;1.53;1.00;;;;;;;;;;4952725;29;20587;-72
2021/03/14 09:13:02;;;;;;;1.17;0.97;;;;;;;;;;4937003;29;20596;-73
2021/03/14 09:16:18;;;;;;;2.20;1.23;;;;;;;;;;4936049;29;20612;-74
2021/03/14 09:19:43;;;;;;;1.67;0.90;;;;;;;;;;4941825;29;20196;-73
2021/03/14 09:22:48;;;;;;;2.40;0.97;;;;;;;;;;4931941;29;20191;-73
2021/03/14 09:26:02;;;;;;;1.73;1.07;;;;;;;;;;4937200;29;20188;-74
2021/03/14 09:29:09;;;;;;;2.30;1.40;;;;;;;;;;4936016;29;20199;-73
2021/03/14 09:32:29;;;;;;;1.27;0.80;;;;;;;;;;4935568;29;20215;-73
2021/03/14 09:35:38;;;;;;;1.03;0.60;;;;;;;;;;4936823;29;20205;-72
2021/03/14 09:38:59;;;;;;;1.53;0.80;;;;;;;;;;4935702;29;20192;-73
2021/03/14 09:42:34;;;;;;;3.40;0.90;;;;;;;;;;4936495;29;20208;-73
2021/03/14 09:46:05;;;;;;;3.50;1.30;;;;;;;;;;4953094;29;20647;-73
2021/03/14 09:49:14;;;;;;;3.00;0.90;;;;;;;;;;4951130;29;20596;-75
2021/03/14 09:52:33;;;;;;;1.87;1.10;;;;;;;;;;4936103;29;20878;-75
2021/03/14 09:55:43;;;;;;;2.50;1.00;;;;;;;;;;4949753;29;20595;-75
2021/03/14 09:58:48;;;;;;;2.50;1.20;;;;;;;;;;4954929;29;20184;-75
2021/03/14 10:01:55;;;;;;;2.47;1.10;;;;;;;;;;4943241;29;20215;-73
2021/03/14 10:05:00;;;;;;;1.60;0.97;;;;;;;;;;4942759;29;20192;-74
2021/03/14 10:08:07;;;;;;;4.93;1.30;;;;;;;;;;4926808;29;20196;-73
2021/03/14 10:11:14;;;;;;;2.07;1.37;;;;;;;;;;4929140;29;20656;-73
2021/03/14 10:14:24;;;;;;;4.17;1.80;;;;;;;;;;4952922;29;20195;-78
2021/03/14 10:17:28;;;;;;;1.20;1.03;;;;;;;;;;4946661;29;20662;-73
2021/03/14 10:20:35;;;;;;;3.63;1.30;;;;;;;;;;4946870;29;20658;-73
2021/03/14 10:23:45;;;;;;;8.83;4.23;;;;;;;;;;4948341;29;20591;-73
2021/03/14 10:27:07;;;;;;;9.43;4.73;;;;;;;;;;4925672;29;21134;-73
2021/03/14 10:30:19;;;;;;;2.97;1.87;;;;;;;;;;4935176;29;20216;-74
2021/03/14 10:33:44;;;;;;;3.47;2.50;;;;;;;;;;4945311;29;20616;-73
2021/03/14 10:36:51;;;;;;;6.77;2.90;;;;;;;;;;4939236;29;20212;-73
2021/03/14 10:40:07;;;;;;;4.80;2.80;;;;;;;;;;4935207;29;20176;-73
2021/03/14 10:43:19;;;;;;;8.53;4.37;;;;;;;;;;4924592;29;20200;-73
2021/03/14 10:46:49;;;;;;;6.33;3.63;;;;;;;;;;4934801;29;20204;-73
2021/03/14 10:50:07;;;;;;;6.73;3.97;;;;;;;;;;4944783;29;20204;-73
2021/03/14 10:53:16;;;;;;;8.87;5.83;;;;;;;;;;4953702;29;20199;-73
2021/03/14 10:56:32;;;;;;;3.23;2.00;;;;;;;;;;4943095;29;20212;-73
2021/03/14 10:59:37;;;;;;;2.87;1.33;;;;;;;;;;4948786;28;20652;-73
2021/03/14 11:03:11;;;;;;;1.77;1.20;;;;;;;;;;4919807;29;20648;-73
2021/03/14 11:06:24;;;;;;;4.90;2.83;;;;;;;;;;4944569;29;20552;-73
2021/03/14 11:09:28;;;;;;;17.10;9.63;;;;;;;;;;4947718;29;20204;-74
2021/03/14 11:12:41;;;;;;;19.63;9.43;;;;;;;;;;4954018;29;20200;-73
2021/03/14 11:15:45;;;;;;;4.23;3.27;;;;;;;;;;4957478;29;20200;-75
2021/03/14 11:19:03;;;;;;;2.03;1.83;;;;;;;;;;4957476;29;20179;-74
2021/03/14 11:22:17;;;;;;;3.67;1.50;;;;;;;;;;4943945;29;20219;-74
2021/03/14 11:25:27;;;;;;;2.93;1.50;;;;;;;;;;4943803;29;20196;-74
2021/03/14 11:28:42;;;;;;;1.73;1.20;;;;;;;;;;4938540;29;20176;-74
2021/03/14 11:31:47;;;;;;;1.27;1.10;;;;;;;;;;4952623;29;20223;-73
2021/03/14 11:34:54;;;;;;;2.87;1.30;;;;;;;;;;4956970;29;20187;-73
2021/03/14 11:38:17;;;;;;;2.73;1.33;;;;;;;;;;4939455;29;20212;-74
2021/03/14 11:41:40;;;;;;;1.30;1.03;;;;;;;;;;4951604;29;20718;-74
2021/03/14 11:44:56;;;;;;;4.77;1.57;;;;;;;;;;4956769;29;20671;-74
2021/03/14 11:48:00;;;;;;;4.20;2.20;;;;;;;;;;4938496;29;20188;-73
2021/03/14 11:51:27;;;;;;;4.23;2.63;;;;;;;;;;4948839;29;20650;-73
2021/03/14 11:54:38;;;;;;;11.27;8.47;;;;;;;;;;4953409;29;20944;-73
2021/03/14 11:57:44;;;;;;;10.33;8.13;;;;;;;;;;4937643;29;20592;-74
2021/03/14 12:00:49;;;;;;;2.87;1.63;;;;;;;;;;4959939;23;20691;-70
2021/03/14 12:03:55;;;;;;;3.83;1.67;;;;;;;;;;4926666;29;20575;-70
2021/03/14 12:07:01;;;;;;;4.53;1.80;;;;;;;;;;4951486;29;20188;-70
2021/03/14 12:10:11;;;;;;;3.30;1.63;;;;;;;;;;4955452;28;20184;-71
2021/03/14 12:13:16;;;;;;;4.97;1.97;;;;;;;;;;4937609;29;20549;-70
2021/03/14 12:16:21;;;;;;;2.10;1.20;;;;;;;;;;4946333;29;20196;-71
2021/03/14 12:19:25;;;;;;;2.30;1.20;;;;;;;;;;4952834;29;20595;-71
2021/03/14 12:22:30;;;;;;;13.30;6.87;;;;;;;;;;4940764;29;20588;-71
2021/03/14 12:25:35;;;;;;;5.10;2.30;;;;;;;;;;4945538;29;20619;-71
2021/03/14 12:28:41;;;;;;;3.40;1.47;;;;;;;;;;4956550;29;20496;-71
2021/03/14 12:31:46;;;;;;;3.67;1.80;;;;;;;;;;4956336;29;20219;-71
2021/03/14 12:34:51;;;;;;;3.37;1.40;;;;;;;;;;4954999;29;20188;-70
2021/03/14 12:38:01;;;;;;;2.30;1.03;;;;;;;;;;4932638;29;20672;-71
2021/03/14 12:41:06;;;;;;;4.83;1.37;;;;;;;;;;4948230;29;20701;-70
2021/03/14 12:44:10;;;;;;;3.80;1.63;;;;;;;;;;4953517;29;20195;-70
2021/03/14 12:47:17;;;;;;;15.17;6.47;;;;;;;;;;4956275;29;20195;-71
2021/03/14 12:50:21;;;;;;;2.70;1.50;;;;;;;;;;4936579;29;20261;-70
2021/03/14 12:53:26;;;;;;;2.57;1.07;;;;;;;;;;4936984;29;20523;-71
2021/03/14 12:56:32;;;;;;;5.13;2.00;;;;;;;;;;4936675;29;20180;-70
2021/03/14 12:59:42;;;;;;;3.20;1.20;;;;;;;;;;4955069;29;20211;-71
2021/03/14 13:02:47;;;;;;;2.00;1.27;;;;;;;;;;4944335;29;20195;-71
2021/03/14 13:05:52;;;;;;;1.80;0.93;;;;;;;;;;4944714;29;20200;-70
2021/03/14 13:08:56;;;;;;;2.30;1.00;;;;;;;;;;4943481;29;20188;-70
2021/03/14 13:12:05;;;;;;;2.33;1.00;;;;;;;;;;4935921;29;20223;-70
2021/03/14 13:15:09;;;;;;;3.73;1.03;;;;;;;;;;4936793;29;20520;-70
2021/03/14 13:18:14;;;;;;;2.40;0.83;;;;;;;;;;4936617;29;20212;-70
2021/03/14 13:21:18;;;;;;;1.73;1.13;;;;;;;;;;4942879;29;20215;-70
2021/03/14 13:24:23;;;;;;;3.17;1.63;;;;;;;;;;4943266;29;20663;-70
2021/03/14 13:27:27;;;;;;;2.37;1.40;;;;;;;;;;4943199;29;20200;-70
2021/03/14 13:30:31;;;;;;;2.43;1.23;;;;;;;;;;4948739;29;20224;-70
2021/03/14 13:33:35;;;;;;;3.60;0.80;;;;;;;;;;4953239;29;20536;-70
2021/03/14 13:36:40;;;;;;;2.87;0.90;;;;;;;;;;4954536;29;20191;-71
2021/03/14 13:39:44;;;;;;;2.57;0.87;;;;;;;;;;4936311;29;20203;-70
2021/03/14 13:42:48;;;;;;;3.00;0.97;;;;;;;;;;4936471;29;20200;-70
2021/03/14 13:45:52;;;;;;;2.30;1.87;;;;;;;;;;4936541;29;20180;-71
2021/03/14 13:48:57;;;;;;;3.77;1.50;;;;;;;;;;4954261;29;20191;-70
2021/03/14 13:52:03;;;;;;;1.10;0.87;;;;;;;;;;4945803;29;20219;-71
2021/03/14 13:55:08;;;;;;;8.00;2.50;;;;;;;;;;4935597;29;20192;-71
2021/03/14 13:58:13;;;;;;;4.80;1.83;;;;;;;;;;4935263;29;20212;-71
2021/03/14 14:01:17;;;;;;;3.13;1.50;;;;;;;;;;4936727;29;20231;-70
2021/03/14 14:04:21;;;;;;;2.57;1.50;;;;;;;;;;4935384;29;20207;-71
2021/03/14 14:07:25;;;;;;;1.27;0.90;;;;;;;;;;4936450;29;20188;-71
2021/03/14 14:10:32;;;;;;;5.13;1.07;;;;;;;;;;4936084;29;20567;-71
2021/03/14 14:13:37;;;;;;;1.63;0.90;;;;;;;;;;4950310;29;20187;-71
2021/03/14 14:16:41;;;;;;;2.30;1.00;;;;;;;;;;4937278;29;20192;-71
2021/03/14 14:19:44;;;;;;;1.77;1.30;;;;;;;;;;4935146;29;20180;-71
2021/03/14 14:22:48;;;;;;;2.23;1.40;;;;;;;;;;4953947;29;20207;-71
2021/03/14 14:25:52;;;;;;;2.50;1.07;;;;;;;;;;4954926;29;20199;-71
2021/03/14 14:28:57;;;;;;;3.37;1.03;;;;;;;;;;4935463;29;20188;-71
2021/03/14 14:32:02;;;;;;;3.80;1.23;;;;;;;;;;4936907;29;20310;-70
2021/03/14 14:35:08;;;;;;;3.53;2.60;;;;;;;;;;4950109;29;20642;-70
2021/03/14 14:38:12;;;;;;;2.13;1.20;;;;;;;;;;4958570;29;20211;-70
2021/03/14 14:41:16;;;;;;;4.90;1.63;;;;;;;;;;4958599;29;20218;-70
2021/03/14 14:44:20;;;;;;;3.10;1.30;;;;;;;;;;4958649;29;20524;-70
2021/03/14 14:47:25;;;;;;;2.90;1.17;;;;;;;;;;4939656;29;20524;-70
2021/03/14 14:50:29;;;;;;;2.90;1.10;;;;;;;;;;4942878;29;20219;-70
2021/03/14 14:53:33;;;;;;;1.63;1.10;;;;;;;;;;4954730;29;20528;-71
2021/03/14 14:56:37;;;;;;;2.73;1.00;;;;;;;;;;4941123;29;20200;-71
2021/03/14 14:59:41;;;;;;;4.60;1.00;;;;;;;;;;4945845;29;20207;-71
2021/03/14 15:02:45;;;;;;;2.47;1.07;;;;;;;;;;4958716;29;20192;-70
2021/03/14 15:05:50;;;;;;;2.63;1.33;;;;;;;;;;4945185;29;20200;-70
2021/03/14 15:08:54;;;;;;;2.43;1.10;;;;;;;;;;4939468;29;20196;-71
2021/03/14 15:11:58;;;;;;;2.70;1.30;;;;;;;;;;4946789;29;20706;-70
2021/03/14 15:15:04;;;;;;;3.77;1.30;;;;;;;;;;4953988;29;20188;-70
2021/03/14 15:18:13;;;;;;;3.40;1.87;;;;;;;;;;4942959;29;20212;-70
2021/03/14 15:21:18;;;;;;;10.83;4.60;;;;;;;;;;4947325;29;20690;-71
2021/03/14 15:24:22;;;;;;;5.43;2.93;;;;;;;;;;4954805;29;20531;-70
2021/03/14 15:27:27;;;;;;;5.90;2.50;;;;;;;;;;4947366;29;20200;-70
2021/03/14 15:30:32;;;;;;;3.77;1.67;;;;;;;;;;4947985;29;20222;-70
2021/03/14 15:33:36;;;;;;;4.77;1.87;;;;;;;;;;4947790;29;20187;-70
2021/03/14 15:36:40;;;;;;;3.90;1.20;;;;;;;;;;4949653;29;20646;-70
2021/03/14 15:39:45;;;;;;;1.63;1.00;;;;;;;;;;4951485;29;20560;-70
2021/03/14 15:42:49;;;;;;;3.90;1.17;;;;;;;;;;4940045;29;20184;-70
2021/03/14 15:45:53;;;;;;;2.50;1.03;;;;;;;;;;4954473;28;20195;-69
2021/03/14 15:48:57;;;;;;;2.20;0.90;;;;;;;;;;4956556;29;20199;-69
2021/03/14 15:52:02;;;;;;;1.30;1.00;;;;;;;;;;4955066;29;20219;-70
2021/03/14 15:55:07;;;;;;;4.87;1.20;;;;;;;;;;4939606;29;20192;-70
2021/03/14 15:58:11;;;;;;;3.17;1.30;;;;;;;;;;4957481;29;20219;-70
2021/03/14 16:01:15;;;;;;;5.63;2.30;;;;;;;;;;4957464;29;20227;-70
2021/03/14 16:04:19;;;;;;;13.70;5.07;;;;;;;;;;4948672;29;20187;-70
2021/03/14 16:07:23;;;;;;;9.93;3.50;;;;;;;;;;4957209;29;20945;-70
2021/03/14 16:10:28;;;;;;;2.77;1.40;;;;;;;;;;4957335;29;20219;-70
2021/03/14 16:13:32;;;;;;;17.10;4.83;;;;;;;;;;4948874;29;20592;-70
2021/03/14 16:16:36;;;;;;;7.53;2.17;;;;;;;;;;4938081;29;20548;-71
2021/03/14 16:19:40;;;;;;;7.20;2.53;;;;;;;;;;4937886;29;20529;-70
2021/03/14 16:22:44;;;;;;;22.07;7.17;;;;;;;;;;4937808;29;20587;-72
2021/03/14 16:25:48;;;;;;;39.97;12.83;;;;;;;;;;4936974;29;20552;-70
2021/03/14 16:28:52;;;;;;;46.77;19.73;;;;;;;;;;4954918;29;20580;-70
2021/03/14 16:31:57;;;;;;;65.10;21.13;;;;;;;;;;4956645;29;20659;-70
2021/03/14 16:35:01;;;;;;;19.40;9.33;;;;;;;;;;4955788;29;20563;-70
2021/03/14 16:38:05;;;;;;;7.70;4.30;;;;;;;;;;4955931;29;20599;-70
2021/03/14 16:41:09;;;;;;;5.30;2.60;;;;;;;;;;4947374;29;20648;-70
2021/03/14 16:44:15;;;;;;;10.63;5.17;;;;;;;;;;4937352;29;20600;-70
2021/03/14 16:47:19;;;;;;;5.83;2.60;;;;;;;;;;4937340;29;20600;-70
2021/03/14 16:50:23;;;;;;;15.57;8.33;;;;;;;;;;4937417;29;20619;-71
2021/03/14 16:53:27;;;;;;;7.13;3.17;;;;;;;;;;4938558;29;20619;-71
2021/03/14 16:56:32;;;;;;;3.87;2.33;;;;;;;;;;4939331;29;20628;-70
2021/03/14 16:59:36;;;;;;;11.67;4.83;;;;;;;;;;4944867;29;20656;-70
2021/03/14 17:02:41;;;;;;;23.47;10.57;;;;;;;;;;4942125;29;20594;-70
2021/03/14 17:05:45;;;;;;;30.57;14.57;;;;;;;;;;4946419;29;20600;-70
2021/03/14 17:08:50;;;;;;;14.03;5.73;;;;;;;;;;4956440;29;20733;-70
2021/03/14 17:11:54;;;;;;;31.33;15.53;;;;;;;;;;4948593;29;20643;-70
2021/03/14 17:14:59;;;;;;;14.43;6.17;;;;;;;;;;4940625;29;20595;-72
2021/03/14 17:18:03;;;;;;;39.57;18.37;;;;;;;;;;4943401;29;20611;-71
2021/03/14 17:21:08;;;;;;;71.40;35.97;;;;;;;;;;4955601;29;20645;-70
2021/03/14 17:24:14;;;;;;;22.03;15.93;;;;;;;;;;4955900;29;21164;-71
2021/03/14 17:27:19;;;;;;;4.77;3.37;;;;;;;;;;4955879;29;20555;-70
2021/03/14 17:30:24;;;;;;;6.40;4.17;;;;;;;;;;4954990;29;20619;-71
2021/03/14 17:33:28;;;;;;;6.63;3.67;;;;;;;;;;4955564;29;20560;-70
2021/03/14 17:36:32;;;;;;;13.77;6.67;;;;;;;;;;4955731;29;20907;-69
2021/03/14 17:39:37;;;;;;;4.90;3.30;;;;;;;;;;4955953;29;20607;-70
2021/03/14 17:42:42;;;;;;;2.70;1.60;;;;;;;;;;4955708;29;20551;-69
2021/03/14 17:45:46;;;;;;;7.57;3.73;;;;;;;;;;4955434;29;20551;-69
2021/03/14 17:48:51;;;;;;;5.57;2.93;;;;;;;;;;4955347;29;20555;-69
2021/03/14 17:51:55;;;;;;;13.00;6.80;;;;;;;;;;4954608;29;20623;-70
2021/03/14 17:54:59;;;;;;;9.23;4.57;;;;;;;;;;4955143;29;20539;-69
2021/03/14 17:58:03;;;;;;;5.63;2.40;;;;;;;;;;4954228;29;20602;-70
2021/03/14 18:01:09;;;;;;;2.60;1.20;;;;;;;;;;4954237;29;20646;-69
2021/03/14 18:04:13;;;;;;;3.90;1.17;;;;;;;;;;4955828;29;21054;-69
2021/03/14 18:07:17;;;;;;;2.67;1.67;;;;;;;;;;4955047;29;20551;-70
2021/03/14 18:10:22;;;;;;;4.40;2.47;;;;;;;;;;4955039;29;20622;-71
2021/03/14 18:13:26;;;;;;;16.97;7.47;;;;;;;;;;4954613;29;20548;-71
2021/03/14 18:16:30;;;;;;;15.63;7.83;;;;;;;;;;4954425;29;20884;-69
2021/03/14 18:19:35;;;;;;;10.07;5.67;;;;;;;;;;4955083;29;20586;-69
2021/03/14 18:22:39;;;;;;;5.47;3.40;;;;;;;;;;4954872;29;20547;-69
2021/03/14 18:25:43;;;;;;;4.57;3.77;;;;;;;;;;4955220;29;21098;-70
2021/03/14 18:28:47;;;;;;;4.20;3.03;;;;;;;;;;4926982;28;20540;-70
2021/03/14 18:31:59;;;;;;;4.90;2.37;;;;;;;;;;4908854;29;20637;-70
2021/03/14 18:35:11;;;;;;;4.37;2.47;;;;;;;;;;4876825;29;20602;-70
2021/03/14 18:38:15;;;;;;;3.80;2.53;;;;;;;;;;4897154;29;21070;-70
2021/03/14 18:41:19;;;;;;;4.57;2.30;;;;;;;;;;4897901;29;20970;-70